createdAt,value
2022-10-14T00:01:32.889Z,12.60
2022-10-14T00:04:00.248Z,12.60
2022-10-14T00:06:32.162Z,12.50
2022-10-14T00:09:04.945Z,12.60
2022-10-14T00:11:32.621Z,12.90
2022-10-14T00:14:06.202Z,12.50
2022-10-14T00:16:35.312Z,12.60
2022-10-14T00:19:03.232Z,12.60
2022-10-14T00:21:30.590Z,12.60
2022-10-14T00:23:57.791Z,12.60
2022-10-14T00:26:32.907Z,12.60
2022-10-14T00:29:00.846Z,12.60
2022-10-14T00:31:28.499Z,12.60
2022-10-14T00:33:55.468Z,12.70
2022-10-14T00:36:24.382Z,12.60
2022-10-14T00:38:52.564Z,12.70
2022-10-14T00:41:31.329Z,12.70
2022-10-14T00:44:01.583Z,12.70
2022-10-14T00:46:43.177Z,12.70
2022-10-14T00:49:16.548Z,12.70
2022-10-14T00:51:47.706Z,12.70
2022-10-14T00:54:16.300Z,12.60
2022-10-14T00:56:44.422Z,12.60
2022-10-14T00:59:11.229Z,12.60
2022-10-14T01:01:38.031Z,12.50
2022-10-14T01:04:04.915Z,12.50
2022-10-14T01:06:50.547Z,12.40
2022-10-14T01:09:33.975Z,12.40
2022-10-14T01:12:28.145Z,12.30
2022-10-14T01:15:05.170Z,12.20
2022-10-14T01:18:17.836Z,12.20
2022-10-14T01:21:06.997Z,12.20
2022-10-14T01:23:40.419Z,12.70
2022-10-14T01:26:39.834Z,12.10
2022-10-14T01:29:21.502Z,12.10
2022-10-14T01:31:50.977Z,12.10
2022-10-14T01:34:30.558Z,12.10
2022-10-14T01:37:02.135Z,12.00
2022-10-14T01:39:34.933Z,12.00
2022-10-14T01:42:11.678Z,12.00
2022-10-14T01:44:43.327Z,12.10
2022-10-14T01:47:12.337Z,12.10
2022-10-14T01:49:47.484Z,12.10
2022-10-14T01:52:20.338Z,12.10
2022-10-14T01:54:49.830Z,12.10
2022-10-14T01:57:20.432Z,12.10
2022-10-14T01:59:47.563Z,12.10
2022-10-14T02:02:14.532Z,12.10
2022-10-14T02:04:41.380Z,12.10
2022-10-14T02:07:40.116Z,12.10
2022-10-14T02:10:28.706Z,12.10
2022-10-14T02:13:01.437Z,12.10
2022-10-14T02:16:02.926Z,12.00
2022-10-14T02:18:38.290Z,12.00
2022-10-14T02:21:36.245Z,12.00
2022-10-14T02:24:10.114Z,12.00
2022-10-14T02:26:38.036Z,12.00
2022-10-14T02:29:06.008Z,11.90
2022-10-14T02:31:34.830Z,11.90
2022-10-14T02:34:04.099Z,11.90
2022-10-14T02:36:31.289Z,11.90
2022-10-14T02:38:59.890Z,11.90
2022-10-14T02:41:30.780Z,11.90
2022-10-14T02:43:57.546Z,11.90
2022-10-14T02:46:24.214Z,11.90
2022-10-14T02:48:50.934Z,11.90
2022-10-14T02:51:17.937Z,11.90
2022-10-14T02:53:44.836Z,11.90
2022-10-14T02:56:14.937Z,11.80
2022-10-14T02:58:41.727Z,11.80
2022-10-14T03:01:08.511Z,11.70
2022-10-14T03:03:35.307Z,11.70
2022-10-14T03:06:02.074Z,11.70
2022-10-14T03:08:28.802Z,11.60
2022-10-14T03:10:55.603Z,11.60
2022-10-14T03:13:22.339Z,11.60
2022-10-14T03:15:50.473Z,11.60
2022-10-14T03:18:17.357Z,11.60
2022-10-14T03:20:44.830Z,11.60
2022-10-14T03:23:12.200Z,11.60
2022-10-14T03:25:38.882Z,11.60
2022-10-14T03:28:05.719Z,11.60
2022-10-14T03:30:32.453Z,11.60
2022-10-14T03:32:59.155Z,11.60
2022-10-14T03:35:25.813Z,11.70
2022-10-14T03:37:54.650Z,11.70
2022-10-14T03:40:22.016Z,11.70
2022-10-14T03:42:48.727Z,11.70
2022-10-14T03:45:15.823Z,11.70
2022-10-14T03:47:42.755Z,11.80
2022-10-14T03:50:09.664Z,11.80
2022-10-14T03:52:36.843Z,11.80
2022-10-14T03:55:03.738Z,11.80
2022-10-14T03:57:30.507Z,11.80
2022-10-14T03:59:57.226Z,11.80
2022-10-14T04:02:24.412Z,11.80
2022-10-14T04:04:51.234Z,11.80
2022-10-14T04:07:17.881Z,11.80
2022-10-14T04:09:44.601Z,11.80
2022-10-14T04:12:11.360Z,11.80
2022-10-14T04:14:38.270Z,11.90
2022-10-14T04:17:04.974Z,11.90
2022-10-14T04:19:31.900Z,11.80
2022-10-14T04:21:58.685Z,11.80
2022-10-14T04:24:25.495Z,11.90
2022-10-14T04:26:52.670Z,11.90
2022-10-14T04:29:19.921Z,11.90
2022-10-14T04:31:46.665Z,11.90
2022-10-14T04:34:13.423Z,11.90
2022-10-14T04:36:40.333Z,11.90
2022-10-14T04:39:07.250Z,11.90
2022-10-14T04:41:33.935Z,11.90
2022-10-14T04:44:00.668Z,11.90
2022-10-14T04:46:27.571Z,11.90
2022-10-14T04:48:54.381Z,11.90
2022-10-14T04:51:21.768Z,11.90
2022-10-14T04:53:48.449Z,11.90
2022-10-14T04:56:15.214Z,11.80
2022-10-14T04:58:41.937Z,11.80
2022-10-14T05:01:08.680Z,11.70
2022-10-14T05:03:35.351Z,11.70
2022-10-14T05:06:02.084Z,12.20
2022-10-14T05:08:28.862Z,11.70
2022-10-14T05:10:55.522Z,11.70
2022-10-14T05:13:22.219Z,11.70
2022-10-14T05:15:49.252Z,12.10
2022-10-14T05:18:16.052Z,11.70
2022-10-14T05:20:42.804Z,11.70
2022-10-14T05:23:09.516Z,11.70
2022-10-14T05:25:36.237Z,11.70
2022-10-14T05:28:03.155Z,11.70
2022-10-14T05:30:34.501Z,11.80
2022-10-14T05:33:01.763Z,11.80
2022-10-14T05:35:46.676Z,11.80
2022-10-14T05:38:15.289Z,11.80
2022-10-14T05:40:42.720Z,11.80
2022-10-14T05:43:09.413Z,11.90
2022-10-14T05:45:36.133Z,11.80
2022-10-14T05:48:02.885Z,11.90
2022-10-14T05:50:29.563Z,11.90
2022-10-14T05:52:56.260Z,11.90
2022-10-14T05:55:23.024Z,11.90
2022-10-14T05:57:49.940Z,12.00
2022-10-14T06:00:24.668Z,12.00
2022-10-14T06:02:52.633Z,12.00
2022-10-14T06:05:19.458Z,12.10
2022-10-14T06:07:46.377Z,12.10
2022-10-14T06:10:13.146Z,12.10
2022-10-14T06:12:39.838Z,12.20
2022-10-14T06:15:06.995Z,12.20
2022-10-14T06:17:34.410Z,12.20
2022-10-14T06:20:01.125Z,12.20
2022-10-14T06:22:28.884Z,12.30
2022-10-14T06:24:56.811Z,12.30
2022-10-14T06:27:26.042Z,12.30
2022-10-14T06:29:52.794Z,12.30
2022-10-14T06:32:19.813Z,12.30
2022-10-14T06:34:46.873Z,12.30
2022-10-14T06:37:13.625Z,12.30
2022-10-14T06:39:41.828Z,12.30
2022-10-14T06:42:12.928Z,12.40
2022-10-14T06:44:40.053Z,12.30
2022-10-14T06:47:07.901Z,12.40
2022-10-14T06:49:34.919Z,12.40
2022-10-14T06:52:01.698Z,12.40
2022-10-14T06:54:28.358Z,12.40
2022-10-14T06:56:55.092Z,12.50
2022-10-14T06:59:22.013Z,12.50
2022-10-14T07:01:48.751Z,12.60
2022-10-14T07:04:15.488Z,12.60
2022-10-14T07:06:42.233Z,12.70
2022-10-14T07:09:08.918Z,12.70
2022-10-14T07:11:35.649Z,12.80
2022-10-14T07:14:02.411Z,12.80
2022-10-14T07:16:29.394Z,12.90
2022-10-14T07:18:56.393Z,13.00
2022-10-14T07:21:23.169Z,13.10
2022-10-14T07:23:49.987Z,13.10
2022-10-14T07:26:16.732Z,13.20
2022-10-14T07:28:43.518Z,13.30
2022-10-14T07:31:11.749Z,13.30
2022-10-14T07:33:40.238Z,13.40
2022-10-14T07:36:18.481Z,13.40
2022-10-14T07:38:48.432Z,13.40
2022-10-14T07:41:18.387Z,13.40
2022-10-14T07:43:52.879Z,13.40
2022-10-14T07:46:29.182Z,13.40
2022-10-14T07:48:57.935Z,13.40
2022-10-14T07:51:25.727Z,13.40
2022-10-14T07:53:53.142Z,13.40
2022-10-14T07:56:20.581Z,13.40
2022-10-14T07:58:47.784Z,13.30
2022-10-14T08:01:16.004Z,13.80
2022-10-14T08:03:43.612Z,13.30
2022-10-14T08:06:10.625Z,13.30
2022-10-14T08:08:38.074Z,13.40
2022-10-14T08:11:11.630Z,13.40
2022-10-14T08:13:43.319Z,13.50
2022-10-14T08:16:26.704Z,13.60
2022-10-14T08:18:56.049Z,13.60
2022-10-14T08:21:22.738Z,13.70
2022-10-14T08:23:49.640Z,13.70
2022-10-14T08:26:35.003Z,13.80
2022-10-14T08:29:05.158Z,13.90
2022-10-14T08:31:32.975Z,13.90
2022-10-14T08:34:00.198Z,14.00
2022-10-14T08:36:27.027Z,14.20
2022-10-14T08:38:54.740Z,14.10
2022-10-14T08:41:54.504Z,14.10
2022-10-14T08:44:32.371Z,14.10
2022-10-14T08:47:01.459Z,14.10
2022-10-14T08:49:47.719Z,14.20
2022-10-14T08:52:19.279Z,14.20
2022-10-14T08:55:08.116Z,14.30
2022-10-14T08:57:49.542Z,14.30
2022-10-14T09:00:16.995Z,14.40
2022-10-14T09:02:48.276Z,14.40
2022-10-14T09:05:21.301Z,14.50
2022-10-14T09:10:27.611Z,14.80
2022-10-14T09:12:56.760Z,14.90
2022-10-14T09:15:30.929Z,15.00
2022-10-14T09:18:02.096Z,15.10
2022-10-14T09:20:28.932Z,15.10
2022-10-14T09:23:05.434Z,15.20
2022-10-14T09:25:34.770Z,15.30
2022-10-14T09:28:01.803Z,15.40
2022-10-14T09:30:31.638Z,15.40
2022-10-14T09:32:59.847Z,15.50
2022-10-14T09:35:35.795Z,15.50
2022-10-14T09:38:02.538Z,15.60
2022-10-14T09:40:31.336Z,15.70
2022-10-14T09:43:09.965Z,15.70
2022-10-14T09:46:01.460Z,15.70
2022-10-14T09:48:42.857Z,15.80
2022-10-14T09:51:22.152Z,15.80
2022-10-14T09:53:53.236Z,15.80
2022-10-14T09:56:41.620Z,15.80
2022-10-14T09:59:18.658Z,15.80
2022-10-14T10:01:54.804Z,15.80
2022-10-14T10:04:40.716Z,15.80
2022-10-14T10:07:28.982Z,15.80
2022-10-14T10:09:57.190Z,15.90
2022-10-14T10:12:32.817Z,15.90
2022-10-14T10:15:05.262Z,15.90
2022-10-14T10:17:35.997Z,15.90
2022-10-14T10:20:15.899Z,15.80
2022-10-14T10:22:43.050Z,15.80
2022-10-14T10:25:09.995Z,15.80
2022-10-14T10:27:38.998Z,15.80
2022-10-14T10:30:23.164Z,15.70
2022-10-14T10:33:01.772Z,15.60
2022-10-14T10:36:10.144Z,15.50
2022-10-14T10:38:54.868Z,15.50
2022-10-14T10:41:31.888Z,15.40
2022-10-14T10:44:16.866Z,15.40
2022-10-14T10:47:00.916Z,15.40
2022-10-14T10:49:51.680Z,15.40
2022-10-14T10:52:42.270Z,15.30
2022-10-14T10:55:41.405Z,15.20
2022-10-14T10:58:20.159Z,15.20
2022-10-14T11:01:10.298Z,15.20
2022-10-14T11:03:56.583Z,15.30
2022-10-14T11:07:08.694Z,15.30
2022-10-14T11:10:25.481Z,15.50
2022-10-14T11:13:13.851Z,15.50
2022-10-14T11:16:20.516Z,15.60
2022-10-14T11:18:48.836Z,15.70
2022-10-14T11:21:37.410Z,15.80
2022-10-14T11:27:08.599Z,15.90
2022-10-14T11:30:13.946Z,16.00
2022-10-14T11:32:49.536Z,16.00
2022-10-14T11:35:53.358Z,16.10
2022-10-14T11:38:38.599Z,16.10
2022-10-14T11:41:27.588Z,16.20
2022-10-14T11:44:14.244Z,16.20
2022-10-14T11:46:46.149Z,16.20
2022-10-14T11:49:20.957Z,16.30
2022-10-14T11:51:56.210Z,16.40
2022-10-14T11:54:39.793Z,16.50
2022-10-14T11:57:39.415Z,16.60
2022-10-14T12:03:04.749Z,16.70
2022-10-14T12:05:40.601Z,16.70
2022-10-14T12:08:47.650Z,16.70
2022-10-14T12:11:29.959Z,16.90
2022-10-14T12:14:22.593Z,16.90
2022-10-14T12:16:49.797Z,17.00
2022-10-14T12:19:29.594Z,16.90
2022-10-14T12:21:59.479Z,16.90
2022-10-14T12:24:31.303Z,16.90
2022-10-14T12:27:01.335Z,16.90
2022-10-14T12:29:35.417Z,16.90
2022-10-14T12:32:05.298Z,16.90
2022-10-14T12:34:40.331Z,16.90
2022-10-14T12:37:38.093Z,16.90
2022-10-14T12:40:07.870Z,17.00
2022-10-14T12:42:51.735Z,17.00
2022-10-14T12:45:23.379Z,17.10
2022-10-14T12:48:15.947Z,17.20
2022-10-14T12:50:47.589Z,17.30
2022-10-14T12:53:23.982Z,17.40
2022-10-14T12:56:09.569Z,17.40
2022-10-14T12:58:43.457Z,17.50
2022-10-14T13:01:18.983Z,17.50
2022-10-14T13:04:00.197Z,17.50
2022-10-14T13:06:28.803Z,17.40
2022-10-14T13:09:15.399Z,17.40
2022-10-14T13:11:43.600Z,17.30
2022-10-14T13:14:55.921Z,17.20
2022-10-14T13:17:47.847Z,17.10
2022-10-14T13:20:33.443Z,17.10
2022-10-14T13:23:19.257Z,17.00
2022-10-14T13:25:47.332Z,17.00
2022-10-14T13:28:34.524Z,16.90
2022-10-14T13:31:05.853Z,16.80
2022-10-14T13:33:54.079Z,16.60
2022-10-14T13:36:35.688Z,16.30
2022-10-14T13:39:02.825Z,15.90
2022-10-14T13:41:31.344Z,15.70
2022-10-14T13:43:59.907Z,15.50
2022-10-14T13:46:33.720Z,15.30
2022-10-14T13:49:02.246Z,15.40
2022-10-14T13:51:45.124Z,15.30
2022-10-14T13:54:26.440Z,15.30
2022-10-14T14:02:51.509Z,15.40
2022-10-14T14:05:21.982Z,15.40
2022-10-14T14:10:51.469Z,15.40
2022-10-14T14:13:24.658Z,15.40
2022-10-14T14:15:52.646Z,15.40
2022-10-14T14:18:55.856Z,15.40
2022-10-14T14:21:25.342Z,15.50
2022-10-14T14:23:57.646Z,15.50
2022-10-14T14:26:37.400Z,15.50
2022-10-14T14:29:06.472Z,15.60
2022-10-14T14:32:01.294Z,15.60
2022-10-14T14:34:21.792Z,15.60
2022-10-14T14:38:20.197Z,15.50
2022-10-14T14:40:08.773Z,15.50
2022-10-14T14:42:37.585Z,15.60
2022-10-14T14:45:12.498Z,15.50
2022-10-14T14:47:39.969Z,15.50
2022-10-14T14:53:13.785Z,15.40
2022-10-14T14:55:54.662Z,15.40
2022-10-14T14:58:27.679Z,15.30
2022-10-14T15:00:55.134Z,15.30
2022-10-14T15:03:34.850Z,15.30
2022-10-14T15:06:03.551Z,15.30
2022-10-14T15:08:36.663Z,15.30
2022-10-14T15:11:04.104Z,15.30
2022-10-14T15:13:43.431Z,15.20
2022-10-14T15:16:10.330Z,15.20
2022-10-14T15:18:40.646Z,15.20
2022-10-14T15:21:13.280Z,15.20
2022-10-14T15:23:41.322Z,15.10
2022-10-14T15:26:23.320Z,15.10
2022-10-14T15:29:25.644Z,15.10
2022-10-14T15:32:01.363Z,15.00
2022-10-14T15:34:28.359Z,14.90
2022-10-14T15:36:55.153Z,14.80
2022-10-14T15:39:22.185Z,14.80
2022-10-14T15:41:49.282Z,14.80
2022-10-14T15:44:16.557Z,14.70
2022-10-14T15:47:03.159Z,14.70
2022-10-14T15:49:37.405Z,14.60
2022-10-14T15:52:04.623Z,14.60
2022-10-14T15:54:31.375Z,14.50
2022-10-14T15:56:59.367Z,14.50
2022-10-14T15:59:27.155Z,14.40
2022-10-14T16:01:54.276Z,14.40
2022-10-14T16:04:24.461Z,14.40
2022-10-14T16:06:55.695Z,14.30
2022-10-14T16:09:23.213Z,14.30
2022-10-14T16:11:57.087Z,14.30
2022-10-14T16:14:25.524Z,14.30
2022-10-14T16:16:52.499Z,14.20
2022-10-14T16:19:19.343Z,14.20
2022-10-14T16:21:46.420Z,14.20
2022-10-14T16:24:18.981Z,14.20
2022-10-14T16:26:47.310Z,14.20
2022-10-14T16:29:14.739Z,14.10
2022-10-14T16:31:41.532Z,14.10
2022-10-14T16:34:10.025Z,14.10
2022-10-14T16:36:38.077Z,14.10
2022-10-14T16:39:04.998Z,14.10
2022-10-14T16:41:31.749Z,14.10
2022-10-14T16:43:58.469Z,14.10
2022-10-14T16:46:45.170Z,14.10
2022-10-14T16:49:11.968Z,14.10
2022-10-14T16:51:38.757Z,14.10
2022-10-14T16:54:05.613Z,14.00
2022-10-14T16:56:51.106Z,14.00
2022-10-14T16:59:17.831Z,14.00
2022-10-14T17:01:44.703Z,14.00
2022-10-14T17:04:12.293Z,14.00
2022-10-14T17:06:39.706Z,13.90
2022-10-14T17:09:06.990Z,13.90
2022-10-14T17:11:34.326Z,13.80
2022-10-14T17:14:01.834Z,13.90
2022-10-14T17:16:29.097Z,13.80
2022-10-14T17:18:57.456Z,13.80
2022-10-14T17:21:26.594Z,13.80
2022-10-14T17:23:53.639Z,13.80
2022-10-14T17:26:20.798Z,13.80
2022-10-14T17:28:48.381Z,13.80
2022-10-14T17:31:17.429Z,13.70
2022-10-14T17:33:44.196Z,13.70
2022-10-14T17:36:19.503Z,13.70
2022-10-14T17:38:55.584Z,13.70
2022-10-14T17:41:23.772Z,13.70
2022-10-14T17:43:54.759Z,13.70
2022-10-14T17:46:23.479Z,13.70
2022-10-14T17:49:01.166Z,13.70
2022-10-14T17:51:28.577Z,13.70
2022-10-14T17:54:00.931Z,13.70
2022-10-14T17:56:29.462Z,13.70
2022-10-14T17:59:02.457Z,13.70
2022-10-14T18:01:37.765Z,13.70
2022-10-14T18:04:17.223Z,13.70
2022-10-14T18:06:45.433Z,13.80
2022-10-14T18:09:13.064Z,13.70
2022-10-14T18:12:07.666Z,13.70
2022-10-14T18:14:29.815Z,13.60
2022-10-14T18:16:56.636Z,13.70
2022-10-14T18:19:23.406Z,13.60
2022-10-14T18:21:51.565Z,13.70
2022-10-14T18:24:18.400Z,13.60
2022-10-14T18:26:45.129Z,13.60
2022-10-14T18:29:11.970Z,13.60
2022-10-14T18:31:39.310Z,13.60
2022-10-14T18:34:07.893Z,13.60
2022-10-14T18:36:34.586Z,13.50
2022-10-14T18:39:07.269Z,13.50
2022-10-14T18:41:34.537Z,13.50
2022-10-14T18:44:01.314Z,13.40
2022-10-14T18:46:30.143Z,13.40
2022-10-14T18:48:58.841Z,13.30
2022-10-14T18:51:30.888Z,13.30
2022-10-14T18:54:00.271Z,13.30
2022-10-14T18:56:29.623Z,13.20
2022-10-14T18:58:59.421Z,13.20
2022-10-14T19:01:26.412Z,13.20
2022-10-14T19:03:53.769Z,13.20
2022-10-14T19:06:21.598Z,13.20
2022-10-14T19:08:49.050Z,13.10
2022-10-14T19:11:19.931Z,13.10
2022-10-14T19:13:52.198Z,13.10
2022-10-14T19:16:25.086Z,13.10
2022-10-14T19:18:54.362Z,13.10
2022-10-14T19:21:29.838Z,13.10
2022-10-14T19:23:58.507Z,13.10
2022-10-14T19:26:27.504Z,13.10
2022-10-14T19:28:54.481Z,13.10
2022-10-14T19:31:24.799Z,13.10
2022-10-14T19:33:52.937Z,13.10
2022-10-14T19:36:21.562Z,13.10
2022-10-14T19:38:52.122Z,13.00
2022-10-14T19:41:19.226Z,13.10
2022-10-14T19:43:46.482Z,13.00
2022-10-14T19:46:14.265Z,13.00
2022-10-14T19:48:41.131Z,13.00
2022-10-14T19:51:11.530Z,13.00
2022-10-14T19:53:39.775Z,13.00
2022-10-14T19:56:12.446Z,13.00
2022-10-14T19:58:43.896Z,13.00
2022-10-14T20:01:14.382Z,13.00
2022-10-14T20:03:41.891Z,13.00
2022-10-14T20:06:09.569Z,13.00
2022-10-14T20:08:36.774Z,13.00
2022-10-14T20:11:05.578Z,13.00
2022-10-14T20:13:32.458Z,13.00
2022-10-14T20:16:01.091Z,13.00
2022-10-14T20:18:29.613Z,13.00
2022-10-14T20:20:57.311Z,13.00
2022-10-14T20:23:25.294Z,13.00
2022-10-14T20:25:52.045Z,13.10
2022-10-14T20:28:19.652Z,13.10
2022-10-14T20:30:47.465Z,13.10
2022-10-14T20:33:14.482Z,13.10
2022-10-14T20:35:41.251Z,13.00
2022-10-14T20:38:07.938Z,13.00
2022-10-14T20:40:35.590Z,13.10
2022-10-14T20:43:02.838Z,13.00
2022-10-14T20:45:29.632Z,13.10
2022-10-14T20:47:56.428Z,13.00
2022-10-14T20:50:23.354Z,13.10
2022-10-14T20:52:50.109Z,13.10
2022-10-14T20:55:16.891Z,13.10
2022-10-14T20:57:43.626Z,13.10
2022-10-14T21:00:10.753Z,13.10
2022-10-14T21:02:37.602Z,13.10
2022-10-14T21:05:04.773Z,13.10
2022-10-14T21:07:31.474Z,13.10
2022-10-14T21:09:58.207Z,13.10
2022-10-14T21:12:25.427Z,13.10
2022-10-14T21:14:52.278Z,13.10
2022-10-14T21:17:19.014Z,13.10
2022-10-14T21:19:47.590Z,13.10
2022-10-14T21:22:14.694Z,13.10
2022-10-14T21:24:41.741Z,13.10
2022-10-14T21:27:08.542Z,13.10
2022-10-14T21:29:35.517Z,13.10
2022-10-14T21:32:02.700Z,13.10
2022-10-14T21:34:30.192Z,13.10
2022-10-14T21:36:57.207Z,13.10
2022-10-14T21:39:24.395Z,13.20
2022-10-14T21:41:51.475Z,13.20
2022-10-14T21:44:20.200Z,13.20
2022-10-14T21:46:47.470Z,13.20
2022-10-14T21:49:14.294Z,13.30
2022-10-14T21:51:41.353Z,13.30
2022-10-14T21:54:10.843Z,13.30
2022-10-14T21:56:37.911Z,13.30
2022-10-14T21:59:04.781Z,13.30
2022-10-14T22:01:31.613Z,13.40
2022-10-14T22:04:06.060Z,13.40
2022-10-14T22:06:34.315Z,13.40
2022-10-14T22:09:03.725Z,13.40
2022-10-14T22:11:33.924Z,13.40
2022-10-14T22:14:02.169Z,13.50
2022-10-14T22:16:29.405Z,13.50
2022-10-14T22:18:58.368Z,13.50
2022-10-14T22:21:26.416Z,13.50
2022-10-14T22:23:53.275Z,13.50
2022-10-14T22:26:22.873Z,13.50
2022-10-14T22:28:50.243Z,13.60
2022-10-14T22:31:19.348Z,13.60
2022-10-14T22:33:46.201Z,13.60
2022-10-14T22:36:19.520Z,13.60
2022-10-14T22:38:50.229Z,13.70
2022-10-14T22:41:17.734Z,13.70
2022-10-14T22:43:56.033Z,13.70
2022-10-14T22:46:25.653Z,13.70
2022-10-14T22:48:56.169Z,13.70
2022-10-14T22:51:25.058Z,13.70
2022-10-14T22:53:52.093Z,13.80
2022-10-14T22:56:22.849Z,13.80
2022-10-14T22:58:57.470Z,13.80
2022-10-14T23:01:25.696Z,13.80
2022-10-14T23:03:52.402Z,13.90
2022-10-14T23:06:19.115Z,13.90
2022-10-14T23:08:45.999Z,13.90
2022-10-14T23:11:18.162Z,13.90
2022-10-14T23:13:45.825Z,14.00
2022-10-14T23:16:15.620Z,14.00
2022-10-14T23:21:18.226Z,14.00
2022-10-14T23:23:46.954Z,14.10
2022-10-14T23:26:16.745Z,14.00
2022-10-14T23:28:47.680Z,14.10
2022-10-14T23:31:17.614Z,14.10
2022-10-14T23:33:44.670Z,14.10
2022-10-14T23:36:12.998Z,14.10
2022-10-14T23:38:40.443Z,14.10
2022-10-14T23:41:08.734Z,14.10
2022-10-14T23:43:35.968Z,14.20
2022-10-14T23:46:02.756Z,14.20
2022-10-14T23:48:29.872Z,14.20
2022-10-14T23:50:56.819Z,14.20
2022-10-14T23:53:23.742Z,14.20
2022-10-14T23:55:50.426Z,14.30
2022-10-14T23:58:17.184Z,14.30
